ADDS METAR Data INFO
IDs: Format: Raw Decoded Include TAF

Data at: 1121 UTC 21 Feb 2018

KMOP 201515Z AUTO 17004KT 1 1/4SM RA BKN003 OVC010 12/12 A2987 RMK AO2 T01230118
KMOP 201455Z AUTO 16003KT 1 1/2SM RA BKN006 OVC009 12/12 A2986 RMK AO2 P0003 60009 T01230118
KMOP 201435Z AUTO 18003KT 10SM -DZ OVC011 13/13 A2986 RMK AO2 P0003 T01300125
KMOP 201415Z AUTO 20005KT 7SM -RA BKN009 OVC013 13/12 A2986 RMK AO2 P0003 T01290123
KMOP 201355Z AUTO 21007KT 7SM -RA BKN006 OVC013 13/12 A2987 RMK AO2 P0002 T01260121
KMOP 201335Z AUTO 19005KT 7SM -RA OVC006 12/12 A2986 RMK AO2 P0002 T01240117
KMOP 201315Z AUTO 19006KT 1 1/2SM -RA OVC004 12/11 A2984 RMK AO2 P0001 T01160110
KMOP 201255Z AUTO 18005KT 3/4SM -DZ OVC004 11/10 A2984 RMK AO2 P0003 T01070101
KMOP 201235Z AUTO 16005KT 1/2SM -RA OVC002 10/09 A2982 RMK AO2 P0003 T01010094
KMOP 201215Z AUTO 14003KT 1/4SM -RA OVC002 07/07 A2983 RMK AO2 P0001 T00730066
KMOP 201155Z AUTO 13003KT 3/4SM -RA OVC002 05/04 A2984 RMK AO2 P0012 60021 70091 T00450039 10045 20023
KMOP 201135Z AUTO 00000KT 1 1/2SM -RA OVC004 04/03 A2985 RMK AO2 P0010 T00350030
KMOP 201115Z AUTO 00000KT 2 1/2SM UP OVC002 03/03 A2985 RMK AO2 P0004 T00300025
KMOP 201055Z AUTO 00000KT 1 3/4SM RA OVC002 03/03 A2986 RMK AO2 P0006 T00320026
KMOP 201035Z AUTO 00000KT 1 1/4SM UP OVC002 03/02 A2986 RMK AO2 P0004 T00290022
KMOP 201015Z AUTO 00000KT 1 1/4SM -RA OVC002 03/03 A2986 RMK AO2 P0001 T00310025
KMOP 200955Z AUTO 00000KT 1SM -RA OVC002 03/02 A2985 RMK AO2 P0002 T00270021
KMOP 200935Z AUTO 00000KT 1/2SM RA OVC002 02/02 A2984 RMK AO2 P0001 T00230017
KMOP 200915Z AUTO 00000KT 1/2SM -RA OVC002 03/02 A2986 RMK AO2 T00260020
KMOP 200855Z AUTO 00000KT 1/2SM -RA OVC002 03/02 A2985 RMK AO2 60001 T00260020
KMOP 200835Z AUTO 00000KT 3/4SM BR OVC002 03/02 A2986 RMK AO2 T00300023
KMOP 200815Z AUTO 00000KT 1 1/4SM BR OVC002 03/02 A2984 RMK AO2 T00270021
KMOP 200755Z AUTO 00000KT 1 3/4SM BR OVC002 03/02 A2986 RMK AO2 T00260021
KMOP 200735Z AUTO 00000KT 3SM BR OVC002 03/02 A2986 RMK AO2 T00270021
KMOP 200715Z AUTO 11003KT 2 1/2SM -RA OVC002 03/02 A2986 RMK AO2 T00260020
KMOP 200655Z AUTO 00000KT 4SM BR OVC004 03/02 A2986 RMK AO2 P0001 T00270020
KMOP 200635Z AUTO 06003KT 7SM -RA OVC004 03/02 A2987 RMK AO2 P0001 T00270021
KMOP 200615Z AUTO 00000KT 5SM -RA OVC004 03/02 A2987 RMK AO2 P0001 T00280022
KMOP 200555Z AUTO 05003KT 7SM +DZ OVC004 03/02 A2987 RMK AO2 P0001 60047 T00280021 10037 20027 400450000
KMOP 200535Z AUTO 04003KT 10SM -RA OVC004 03/02 A2988 RMK AO2 P0001 T00290022
KMOP 200515Z AUTO 05003KT 4SM RA OVC004 03/02 A2988 RMK AO2 P0001 T00290022
KMOP 200455Z AUTO 05005KT 10SM -DZ OVC004 03/02 A2988 RMK AO2 P0012 T00280021
KMOP 200435Z AUTO 06003KT 2SM RA OVC006 03/02 A2989 RMK AO2 P0011 T00270020
KMOP 200415Z AUTO 04003KT 2 1/2SM RA OVC004 03/02 A2990 RMK AO2 P0003 T00280021
KMOP 200355Z AUTO 08005KT 4SM RA OVC004 03/02 A2990 RMK AO2 P0008 T00280021
KMOP 200335Z AUTO 08006KT 4SM RA OVC004 03/02 A2990 RMK AO2 P0005 T00280021
KMOP 200315Z AUTO 07005KT 3SM RA OVC004 03/02 A2991 RMK AO2 P0003 T00300022
KMOP 200255Z AUTO 06006KT 2SM UP OVC004 03/02 A2992 RMK AO2 P0008 60023 T00300024
KMOP 200235Z AUTO 08004KT 10SM DZ OVC004 03/03 A2991 RMK AO2 P0001 T00310025
KMOP 200215Z AUTO 07003KT 7SM -RA OVC004 03/03 A2991 RMK AO2 T00330026
KMOP 200155Z AUTO 05003KT 3SM -RA OVC002 03/03 A2991 RMK AO2 P0012 T00340026
KMOP 200135Z AUTO 04004KT 1 3/4SM -RA OVC002 04/03 A2992 RMK AO2 P0007 T00350028
KMOP 200115Z AUTO 05005KT 3SM RA OVC002 04/03 A2991 RMK AO2 P0003 T00350028
KMOP 200055Z AUTO 05004KT 3SM -RA OVC002 04/03 A2990 RMK AO2 T00350028
KMOP 200035Z AUTO 07003KT 4SM -RA OVC002 04/03 A2991 RMK AO2 T00350029
KMOP 200015Z AUTO 06004KT 5SM -DZ OVC002 04/03 A2990 RMK AO2 T00360030
KMOP 192355Z AUTO 07006KT 5SM RA OVC002 04/03 A2990 RMK AO2 P0010 60023 T00370030 10045 20035
KMOP 192335Z AUTO 06005KT 5SM -RA OVC002 04/03 A2990 RMK AO2 P0009 T00360030